Current Weather

Pinal Airpark

Marana, Arizona (KMZJ)

Report from: Tuesday, April 23, 2024 12:35 AM MST
Current time: Tuesday, April 23, 2024 12:59 AM MST

Nearby weather – Weather history – Daily summaries
Weather forecast

Temperature21.0°C (69.8°F)
Dew point-0.0°C (32.0°F)
Winds 4 kts (2.1 m/s, 4.6 mph) East-Southeast (120°)
Visibility10 mi. (16.1 km)
Clouds Ceiling: Broken clouds 4,600 ft. (1,402 m)
Broken clouds 5,000 ft. (1,524 m)
Altimeter29.90 in.Hg (1013 mB)
Relative humidity25 %
Density altitude821 ft. (250 m)
Remarks Fully automated report
Automated weather observing station with precipitation discriminator
Flight conditions Visual Meteorological Conditions
Raw dataKMZJ 230735Z AUTO 12004KT 10SM BKN046 BKN050 21/M00 A2990 RMK AO2
An error has occurred. This application may no longer respond until reloaded. Reload 🗙